| time (UTC) | temp F | wind direction | speed knots | gust knots | rain 1hr in | rain 24hr in | rain mn in | humidity % | barometer mb |
| 20260508105736 | 48 | 215 | 0.0 | 0.0 | 0.00 | 0.00 | 0.00 | 82 | 1008.8 |
| 20260508105233 | 48 | 215 | 0.9 | 0.9 | 0.00 | 0.00 | 0.00 | 82 | 1008.9 |
| 20260508104730 | 47 | 214 | 0.9 | 0.9 | 0.00 | 0.00 | 0.00 | 82 | 1008.9 |
| 20260508104227 | 47 | 207 | 0.9 | 0.9 | 0.00 | 0.00 | 0.00 | 83 | 1009.1 |
| 20260508103724 | 47 | 210 | 0.9 | 0.9 | 0.00 | 0.00 | 0.00 | 84 | 1008.8 |
| 20260508103221 | 46 | 215 | 1.7 | 2.6 | 0.00 | 0.00 | 0.00 | 84 | 1008.9 |
| 20260508102718 | 46 | 225 | 0.0 | 1.7 | 0.00 | 0.00 | 0.00 | 85 | 1008.8 |
| 20260508102216 | 46 | 209 | 0.9 | 1.7 | 0.00 | 0.00 | 0.00 | 86 | 1009.0 |
| 20260508101713 | 46 | 212 | 0.9 | 0.9 | 0.00 | 0.00 | 0.00 | 86 | 1009.1 |
| 20260508101211 | 46 | 207 | 0.0 | 0.9 | 0.00 | 0.00 | 0.00 | 87 | 1009.1 |
| 20260508100708 | 46 | 185 | 1.7 | 1.7 | 0.00 | 0.00 | 0.00 | 87 | 1009.0 |
| 20260508100206 | 45 | 216 | 0.0 | 0.0 | 0.00 | 0.00 | 0.00 | 87 | 1009.1 |
| 20260508095702 | 45 | 215 | 0.0 | 0.9 | 0.00 | 0.00 | 0.00 | 88 | 1008.8 |
| 20260508095159 | 45 | 212 | 0.9 | 0.9 | 0.00 | 0.00 | 0.00 | 87 | 1009.0 |
| 20260508094656 | 45 | 211 | 0.0 | 0.0 | 0.00 | 0.00 | 0.00 | 87 | 1008.9 |
| 20260508094153 | 45 | 212 | 0.9 | 0.9 | 0.00 | 0.00 | 0.00 | 86 | 1009.1 |
| 20260508093650 | 46 | 212 | 0.9 | 0.9 | 0.00 | 0.00 | 0.00 | 85 | 1008.7 |
| 20260508093148 | 46 | 214 | 0.0 | 0.0 | 0.00 | 0.00 | 0.00 | 85 | 1009.0 |
| 20260508092645 | 46 | 212 | 0.9 | 0.9 | 0.00 | 0.00 | 0.00 | 85 | 1008.9 |
| 20260508092143 | 46 | 209 | 0.9 | 0.9 | 0.00 | 0.00 | 0.00 | 84 | 1009.1 |
| 20260508091640 | 46 | 218 | 0.9 | 0.9 | 0.00 | 0.00 | 0.00 | 84 | 1009.3 |
| 20260508091137 | 46 | 217 | 2.6 | 2.6 | 0.00 | 0.00 | 0.00 | 83 | 1009.1 |
| 20260508090635 | 47 | 206 | 0.9 | 0.9 | 0.00 | 0.00 | 0.00 | 83 | 1009.4 |
| 20260508090132 | 47 | 214 | 0.0 | 0.9 | 0.00 | 0.00 | 0.00 | 83 | 1009.1 |
| 20260508085628 | 47 | 223 | 0.9 | 0.9 | 0.00 | 0.00 | 0.00 | 84 | 1009.1 |
| 20260508085126 | 47 | 220 | 0.9 | 0.9 | 0.00 | 0.00 | 0.00 | 83 | 1009.0 |
| 20260508084622 | 46 | 227 | 0.9 | 0.9 | 0.00 | 0.00 | 0.00 | 83 | 1009.2 |
| 20260508084119 | 46 | 217 | 0.0 | 0.9 | 0.00 | 0.00 | 0.00 | 83 | 1009.3 |
| 20260508083616 | 46 | 202 | 2.6 | 4.3 | 0.00 | 0.00 | 0.00 | 83 | 1009.2 |
| 20260508083114 | 46 | 214 | 0.9 | 0.9 | 0.00 | 0.00 | 0.00 | 83 | 1008.9 |
| 20260508082609 | 47 | 214 | 0.9 | 0.9 | 0.00 | 0.00 | 0.00 | 82 | 1009.2 |
| 20260508082107 | 47 | 219 | 0.0 | 0.0 | 0.00 | 0.00 | 0.00 | 82 | 1009.3 |
| 20260508081604 | 46 | 215 | 0.9 | 0.9 | 0.00 | 0.00 | 0.00 | 82 | 1009.1 |
| 20260508081100 | 46 | 207 | 1.7 | 2.6 | 0.00 | 0.00 | 0.00 | 82 | 1009.3 |
| 20260508080558 | 47 | 207 | 0.9 | 0.9 | 0.00 | 0.00 | 0.00 | 80 | 1009.1 |
| 20260508080055 | 47 | 211 | 0.9 | 0.9 | 0.00 | 0.00 | 0.00 | 80 | 1009.2 |
| 20260508075551 | 47 | 215 | 0.9 | 1.7 | 0.00 | 0.00 | 0.00 | 80 | 1009.0 |
| 20260508075049 | 47 | 214 | 0.9 | 0.9 | 0.00 | 0.00 | 0.00 | 79 | 1009.1 |
| 20260508074547 | 48 | 215 | 2.6 | 4.3 | 0.00 | 0.00 | 0.00 | 78 | 1009.5 |
| 20260508074043 | 48 | 251 | 2.6 | 2.6 | 0.00 | 0.00 | 0.00 | 78 | 1009.3 |
| 20260508073540 | 48 | 196 | 0.9 | 1.7 | 0.00 | 0.00 | 0.00 | 77 | 1009.3 |
| 20260508073038 | 48 | 218 | 0.0 | 0.0 | 0.00 | 0.00 | 0.00 | 76 | 1009.3 |
| 20260508072533 | 48 | 232 | 2.6 | 2.6 | 0.00 | 0.00 | 0.00 | 76 | 1009.3 |
| 20260508072031 | 48 | 215 | 2.6 | 4.3 | 0.00 | 0.00 | 0.00 | 75 | 1009.2 |
| 20260508071529 | 48 | 212 | 3.5 | 4.3 | 0.00 | 0.00 | 0.00 | 74 | 1009.2 |
| 20260508071026 | 48 | 225 | 4.3 | 6.1 | 0.00 | 0.00 | 0.00 | 74 | 1009.4 |
| 20260508070524 | 48 | 225 | 1.7 | 1.7 | 0.00 | 0.00 | 0.00 | 74 | 1009.2 |
| 20260508070022 | 48 | 192 | 1.7 | 1.7 | 0.00 | 0.00 | 0.00 | 73 | 1009.1 |
| 20260508065519 | 48 | 219 | 0.9 | 0.9 | 0.00 | 0.00 | 0.00 | 73 | 1009.3 |
| 20260508065018 | 48 | 218 | 0.9 | 1.7 | 0.00 | 0.00 | 0.00 | 74 | 1009.3 |
| 20260508064515 | 47 | 204 | 0.9 | 0.9 | 0.00 | 0.00 | 0.00 | 74 | 1009.1 |
| 20260508064012 | 47 | 211 | 0.9 | 0.9 | 0.00 | 0.00 | 0.00 | 74 | 1009.3 |
| 20260508063510 | 47 | 203 | 0.9 | 1.7 | 0.00 | 0.00 | 0.00 | 74 | 1009.4 |
| 20260508063007 | 47 | 215 | 0.0 | 0.9 | 0.00 | 0.00 | 0.00 | 74 | 1009.1 |
| 20260508062505 | 48 | 228 | 0.9 | 1.7 | 0.00 | 0.00 | 0.00 | 74 | 1009.2 |
| 20260508062001 | 48 | 216 | 0.9 | 0.9 | 0.00 | 0.00 | 0.00 | 73 | 1009.3 |
| 20260508061500 | 47 | 211 | 0.9 | 1.7 | 0.00 | 0.00 | 0.00 | 73 | 1009.4 |
| 20260508060955 | 47 | 209 | 0.9 | 0.9 | 0.00 | 0.00 | 0.00 | 74 | 1009.4 |
| 20260508060453 | 48 | 221 | 0.9 | 0.9 | 0.00 | 0.00 | 0.00 | 73 | 1009.3 |
| 20260508055949 | 48 | 215 | 0.0 | 0.0 | 0.00 | 0.00 | 0.00 | 74 | 1009.4 |
| 20260508055446 | 48 | 204 | 0.9 | 0.9 | 0.00 | 0.00 | 0.00 | 73 | 1009.3 |
| 20260508054942 | 48 | 216 | 0.0 | 0.9 | 0.00 | 0.00 | 0.00 | 74 | 1009.6 |
| 20260508054439 | 48 | 205 | 0.9 | 0.9 | 0.00 | 0.00 | 0.00 | 74 | 1009.4 |
| 20260508053936 | 48 | 213 | 0.0 | 0.0 | 0.00 | 0.00 | 0.00 | 74 | 1009.5 |
| 20260508053433 | 48 | 207 | 0.9 | 0.9 | 0.00 | 0.00 | 0.00 | 73 | 1009.7 |
| 20260508052931 | 48 | 211 | 0.9 | 0.9 | 0.00 | 0.00 | 0.00 | 72 | 1009.7 |
| 20260508052428 | 48 | 211 | 0.9 | 0.9 | 0.00 | 0.00 | 0.00 | 72 | 1009.5 |
| 20260508051924 | 48 | 218 | 0.0 | 0.9 | 0.00 | 0.00 | 0.00 | 71 | 1009.7 |
| 20260508051420 | 48 | 202 | 0.9 | 1.7 | 0.00 | 0.00 | 0.00 | 72 | 1009.7 |
| 20260508050916 | 48 | 188 | 0.9 | 1.7 | 0.00 | 0.00 | 0.00 | 72 | 1009.6 |
| 20260508050413 | 48 | 209 | 0.9 | 0.9 | 0.00 | 0.00 | 0.00 | 72 | 1009.7 |
| 20260508045909 | 48 | 209 | 0.9 | 0.9 | 0.00 | 0.00 | 0.00 | 72 | 1009.8 |
| 20260508045407 | 48 | 208 | 0.0 | 0.9 | 0.00 | 0.00 | 0.00 | 71 | 1009.6 |
| 20260508044905 | 48 | 209 | 0.0 | 0.9 | 0.00 | 0.00 | 0.00 | 70 | 1009.8 |
| 20260508044401 | 48 | 205 | 0.0 | 0.9 | 0.00 | 0.00 | 0.00 | 68 | 1009.8 |
| 20260508043857 | 49 | 217 | 0.9 | 0.9 | 0.00 | 0.00 | 0.00 | 68 | 1009.8 |
| 20260508043354 | 49 | 184 | 0.9 | 1.7 | 0.00 | 0.00 | 0.00 | 68 | 1009.8 |
| 20260508042850 | 49 | 251 | 1.7 | 2.6 | 0.00 | 0.00 | 0.00 | 67 | 1009.9 |
| 20260508042348 | 49 | 206 | 0.9 | 0.9 | 0.00 | 0.00 | 0.00 | 67 | 1009.8 |
| 20260508041845 | 49 | 207 | 0.9 | 1.7 | 0.00 | 0.00 | 0.00 | 68 | 1009.5 |
| 20260508041341 | 49 | 209 | 2.6 | 4.3 | 0.00 | 0.00 | 0.00 | 67 | 1009.6 |
| 20260508040838 | 49 | 212 | 0.9 | 1.7 | 0.00 | 0.00 | 0.00 | 67 | 1009.6 |
| 20260508040336 | 49 | 211 | 1.7 | 1.7 | 0.00 | 0.00 | 0.00 | 67 | 1009.6 |
| 20260508035833 | 48 | 213 | 1.7 | 1.7 | 0.00 | 0.00 | 0.00 | 68 | 1009.6 |
| 20260508035330 | 48 | 209 | 0.9 | 0.9 | 0.00 | 0.00 | 0.00 | 68 | 1009.7 |
| 20260508034827 | 48 | 217 | 1.7 | 1.7 | 0.00 | 0.00 | 0.00 | 67 | 1009.5 |
| 20260508034324 | 48 | 219 | 2.6 | 2.6 | 0.00 | 0.00 | 0.00 | 67 | 1009.7 |
| 20260508033820 | 48 | 219 | 0.9 | 0.9 | 0.00 | 0.00 | 0.00 | 67 | 1009.6 |
| 20260508033319 | 48 | 186 | 2.6 | 2.6 | 0.00 | 0.00 | 0.00 | 66 | 1009.7 |
| 20260508032816 | 47 | 200 | 0.9 | 0.9 | 0.00 | 0.00 | 0.00 | 67 | 1009.8 |
| 20260508032314 | 47 | 204 | 0.9 | 0.9 | 0.00 | 0.00 | 0.00 | 70 | 1009.5 |
| 20260508031810 | 46 | 210 | 0.0 | 0.9 | 0.00 | 0.00 | 0.00 | 69 | 1009.8 |
| 20260508031307 | 46 | 211 | 0.9 | 0.9 | 0.00 | 0.00 | 0.00 | 68 | 1009.7 |
| 20260508030803 | 46 | 201 | 0.9 | 0.9 | 0.00 | 0.00 | 0.00 | 69 | 1009.8 |
| 20260508030301 | 46 | 207 | 0.9 | 0.9 | 0.00 | 0.00 | 0.00 | 70 | 1009.8 |
| 20260508025757 | 45 | 189 | 1.7 | 1.7 | 0.00 | 0.00 | 0.00 | 73 | 1009.9 |
| 20260508025254 | 44 | 200 | 0.9 | 1.7 | 0.00 | 0.00 | 0.00 | 76 | 1009.6 |
| 20260508024750 | 44 | 214 | 0.9 | 0.9 | 0.00 | 0.00 | 0.00 | 78 | 1009.8 |
| 20260508024247 | 43 | 207 | 0.9 | 0.9 | 0.00 | 0.00 | 0.00 | 79 | 1009.7 |
| 20260508023744 | 43 | 211 | 0.0 | 0.0 | 0.00 | 0.00 | 0.00 | 81 | 1009.6 |
| 20260508023241 | 43 | 205 | 0.9 | 0.9 | 0.00 | 0.00 | 0.00 | 81 | 1009.8 |
| 20260508022737 | 43 | 212 | 0.9 | 0.9 | 0.00 | 0.00 | 0.00 | 81 | 1009.6 |
| 20260508022234 | 43 | 213 | 0.0 | 0.0 | 0.00 | 0.00 | 0.00 | 80 | 1009.6 |
| 20260508021731 | 42 | 212 | 0.0 | 0.0 | 0.00 | 0.00 | 0.00 | 80 | 1009.5 |
| 20260508021226 | 43 | 212 | 0.0 | 0.0 | 0.00 | 0.00 | 0.00 | 81 | 1009.5 |
| 20260508020723 | 43 | 212 | 0.0 | 0.0 | 0.00 | 0.00 | 0.00 | 80 | 1009.5 |
| 20260508020221 | 43 | 212 | 0.0 | 0.9 | 0.00 | 0.00 | 0.00 | 79 | 1009.4 |
| 20260508015718 | 42 | 212 | 0.0 | 0.0 | 0.00 | 0.00 | 0.00 | 79 | 1009.4 |
| 20260508015215 | 43 | 212 | 0.0 | 0.0 | 0.00 | 0.00 | 0.00 | 78 | 1009.3 |
| 20260508014711 | 43 | 212 | 0.0 | 0.0 | 0.00 | 0.00 | 0.00 | 77 | 1009.3 |
| 20260508014208 | 44 | 212 | 0.0 | 0.0 | 0.00 | 0.00 | 0.00 | 76 | 1009.5 |
| 20260508013704 | 44 | 212 | 0.0 | 0.0 | 0.00 | 0.00 | 0.00 | 75 | 1009.4 |
| 20260508013201 | 44 | 212 | 0.0 | 0.0 | 0.00 | 0.00 | 0.00 | 73 | 1009.2 |
| 20260508012658 | 45 | 212 | 0.0 | 0.0 | 0.00 | 0.00 | 0.00 | 73 | 1009.3 |
| 20260508012155 | 45 | 212 | 0.0 | 0.0 | 0.00 | 0.00 | 0.00 | 71 | 1009.1 |
| 20260508011653 | 45 | 212 | 0.0 | 0.0 | 0.00 | 0.00 | 0.00 | 71 | 1009.3 |
| 20260508011151 | 46 | 208 | 0.9 | 0.9 | 0.00 | 0.00 | 0.00 | 70 | 1009.0 |
| 20260508010647 | 46 | 205 | 0.9 | 0.9 | 0.00 | 0.00 | 0.00 | 69 | 1008.8 |
| 20260508010145 | 47 | 213 | 0.0 | 0.0 | 0.00 | 0.00 | 0.00 | 68 | 1008.9 |
| 20260508005642 | 47 | 213 | 0.0 | 0.0 | 0.00 | 0.00 | 0.00 | 67 | 1009.0 |
| 20260508005139 | 48 | 213 | 0.0 | 0.0 | 0.00 | 0.00 | 0.00 | 67 | 1009.0 |
| 20260508004634 | 48 | 213 | 0.0 | 0.0 | 0.00 | 0.00 | 0.00 | 65 | 1009.0 |
| 20260508004131 | 48 | 213 | 0.0 | 0.0 | 0.00 | 0.00 | 0.00 | 63 | 1009.0 |
| 20260508003627 | 49 | 212 | 0.0 | 0.0 | 0.00 | 0.00 | 0.00 | 64 | 1009.1 |
| 20260508003125 | 50 | 212 | 0.0 | 0.9 | 0.00 | 0.00 | 0.00 | 64 | 1009.0 |
| 20260508002621 | 50 | 202 | 0.9 | 0.9 | 0.00 | 0.00 | 0.00 | 64 | 1009.0 |
| 20260508002119 | 51 | 214 | 0.0 | 0.0 | 0.00 | 0.00 | 0.00 | 54 | 1008.8 |
| 20260508001614 | 51 | 215 | 0.0 | 0.0 | 0.00 | 0.00 | 0.00 | 54 | 1009.0 |
| 20260508001111 | 52 | 216 | 0.0 | 0.0 | 0.00 | 0.00 | 0.00 | 53 | 1008.9 |
| 20260508000606 | 52 | 220 | 0.0 | 0.0 | 0.00 | 0.00 | 0.00 | 51 | 1008.9 |
| 20260508000104 | 52 | 226 | 0.9 | 0.9 | 0.00 | 0.00 | 0.00 | 50 | 1008.7 |
| 20260507235601 | 53 | 267 | 0.0 | 0.0 | 0.00 | 0.00 | 0.00 | 49 | 1008.7 |
| 20260507235058 | 53 | 314 | 2.6 | 4.3 | 0.00 | 0.00 | 0.00 | 48 | 1008.7 |
| 20260507234554 | 53 | 217 | 0.9 | 1.7 | 0.00 | 0.00 | 0.00 | 49 | 1008.6 |
| 20260507234051 | 53 | 213 | 0.9 | 0.9 | 0.00 | 0.00 | 0.00 | 48 | 1008.7 |
| 20260507233548 | 53 | 156 | 0.9 | 1.7 | 0.00 | 0.00 | 0.00 | 49 | 1008.7 |
| 20260507233046 | 53 | 221 | 1.7 | 2.6 | 0.00 | 0.00 | 0.00 | 49 | 1008.8 |
| 20260507232542 | 53 | 224 | 1.7 | 1.7 | 0.00 | 0.00 | 0.00 | 47 | 1008.6 |
| 20260507232040 | 54 | 291 | 1.7 | 2.6 | 0.00 | 0.00 | 0.00 | 46 | 1008.7 |
| 20260507231536 | 54 | 231 | 1.7 | 1.7 | 0.00 | 0.00 | 0.00 | 46 | 1008.9 |
| 20260507231033 | 54 | 201 | 0.0 | 0.9 | 0.00 | 0.00 | 0.00 | 48 | 1008.8 |
| 20260507230530 | 54 | 227 | 0.0 | 0.9 | 0.00 | 0.00 | 0.00 | 47 | 1008.9 |
| 20260507230027 | 54 | 342 | 1.7 | 2.6 | 0.00 | 0.00 | 0.00 | 47 | 1009.1 |
| 20260507225521 | 54 | 255 | 2.6 | 2.6 | 0.00 | 0.00 | 0.00 | 47 | 1009.1 |
| 20260507225018 | 54 | 340 | 0.9 | 0.9 | 0.00 | 0.00 | 0.00 | 47 | 1009.0 |
| 20260507224514 | 54 | 216 | 0.0 | 0.0 | 0.00 | 0.00 | 0.00 | 46 | 1009.0 |
| 20260507224011 | 54 | 44 | 3.5 | 4.3 | 0.00 | 0.00 | 0.00 | 45 | 1008.9 |
| 20260507223507 | 55 | 256 | 0.9 | 2.6 | 0.00 | 0.00 | 0.00 | 46 | 1009.1 |
| 20260507223004 | 55 | 92 | 0.0 | 0.9 | 0.00 | 0.00 | 0.00 | 46 | 1008.9 |
| 20260507222501 | 55 | 209 | 0.9 | 1.7 | 0.00 | 0.00 | 0.00 | 46 | 1009.0 |
| 20260507221957 | 55 | 318 | 2.6 | 5.2 | 0.00 | 0.00 | 0.00 | 45 | 1009.3 |
| 20260507221454 | 55 | 288 | 4.3 | 6.1 | 0.00 | 0.00 | 0.00 | 45 | 1009.1 |
| 20260507220950 | 55 | 218 | 0.0 | 0.0 | 0.00 | 0.00 | 0.00 | 46 | 1008.9 |
| 20260507220448 | 56 | 251 | 5.2 | 7.8 | 0.00 | 0.00 | 0.00 | 44 | 1008.9 |
| 20260507215944 | 56 | 209 | 0.9 | 1.7 | 0.00 | 0.00 | 0.00 | 46 | 1009.0 |
| 20260507215441 | 56 | 266 | 0.9 | 1.7 | 0.00 | 0.00 | 0.00 | 45 | 1009.2 |
| 20260507214939 | 56 | 14 | 1.7 | 2.6 | 0.00 | 0.00 | 0.00 | 44 | 1009.1 |
| 20260507214436 | 56 | 320 | 1.7 | 1.7 | 0.00 | 0.00 | 0.00 | 44 | 1009.0 |
| 20260507213932 | 57 | 104 | 1.7 | 1.7 | 0.00 | 0.00 | 0.00 | 42 | 1008.8 |
| 20260507213428 | 57 | 230 | 0.9 | 0.9 | 0.00 | 0.00 | 0.00 | 44 | 1008.7 |
| 20260507212925 | 57 | 288 | 1.7 | 1.7 | 0.00 | 0.00 | 0.00 | 46 | 1008.9 |
| 20260507212421 | 57 | 48 | 2.6 | 4.3 | 0.00 | 0.00 | 0.00 | 46 | 1009.1 |
| 20260507211918 | 57 | 259 | 0.9 | 0.9 | 0.00 | 0.00 | 0.00 | 45 | 1008.8 |
| 20260507211415 | 57 | 220 | 1.7 | 1.7 | 0.00 | 0.00 | 0.00 | 47 | 1008.7 |
| 20260507210911 | 56 | 52 | 2.6 | 6.1 | 0.00 | 0.00 | 0.00 | 49 | 1008.8 |
| 20260507210408 | 58 | 249 | 0.9 | 0.9 | 0.00 | 0.00 | 0.00 | 50 | 1008.9 |
| 20260507205905 | 56 | 231 | 1.7 | 1.7 | 0.00 | 0.00 | 0.00 | 52 | 1008.7 |
| 20260507205403 | 57 | 260 | 4.3 | 7.8 | 0.00 | 0.00 | 0.00 | 51 | 1008.9 |
| 20260507204859 | 57 | 273 | 0.9 | 0.9 | 0.00 | 0.00 | 0.00 | 56 | 1008.7 |
| 20260507204355 | 56 | 256 | 0.9 | 0.9 | 0.00 | 0.00 | 0.00 | 54 | 1008.9 |
| 20260507203853 | 56 | 29 | 2.6 | 2.6 | 0.00 | 0.00 | 0.00 | 53 | 1008.5 |
| 20260507203351 | 56 | 214 | 2.6 | 2.6 | 0.00 | 0.00 | 0.00 | 53 | 1008.5 |
| 20260507202846 | 54 | 221 | 0.9 | 0.9 | 0.00 | 0.00 | 0.00 | 58 | 1008.7 |
| 20260507202343 | 53 | 202 | 0.0 | 0.0 | 0.00 | 0.00 | 0.00 | 59 | 1008.6 |
| 20260507201838 | 53 | 43 | 1.7 | 1.7 | 0.00 | 0.00 | 0.00 | 57 | 1008.8 |
| 20260507201334 | 54 | 32 | 2.6 | 2.6 | 0.00 | 0.00 | 0.00 | 57 | 1008.8 |
| 20260507200831 | 55 | 240 | 0.9 | 0.9 | 0.00 | 0.00 | 0.00 | 56 | 1008.7 |
| 20260507200327 | 55 | 342 | 2.6 | 4.3 | 0.00 | 0.00 | 0.00 | 57 | 1008.6 |
| 20260507195823 | 54 | 355 | 1.7 | 2.6 | 0.00 | 0.00 | 0.00 | 58 | 1008.9 |
| 20260507195321 | 54 | 290 | 0.9 | 1.7 | 0.00 | 0.00 | 0.00 | 57 | 1008.6 |
| 20260507194818 | 54 | 61 | 1.7 | 1.7 | 0.00 | 0.00 | 0.00 | 58 | 1008.7 |
| 20260507194314 | 54 | 252 | 1.7 | 1.7 | 0.00 | 0.00 | 0.00 | 57 | 1008.8 |
| 20260507193810 | 54 | 309 | 1.7 | 1.7 | 0.00 | 0.00 | 0.00 | 56 | 1009.0 |
| 20260507193308 | 55 | 298 | 4.3 | 6.1 | 0.00 | 0.00 | 0.00 | 55 | 1008.8 |
| 20260507192803 | 55 | 236 | 2.6 | 4.3 | 0.00 | 0.00 | 0.00 | 54 | 1008.6 |
| 20260507192300 | 55 | 232 | 1.7 | 1.7 | 0.00 | 0.00 | 0.00 | 55 | 1008.8 |
| 20260507191756 | 55 | 238 | 1.7 | 2.6 | 0.00 | 0.00 | 0.00 | 56 | 1008.9 |
| 20260507191253 | 56 | 213 | 0.0 | 0.9 | 0.00 | 0.00 | 0.00 | 55 | 1008.7 |
| 20260507190750 | 57 | 211 | 2.6 | 2.6 | 0.00 | 0.00 | 0.00 | 53 | 1008.7 |
| 20260507190249 | 57 | 13 | 1.7 | 2.6 | 0.00 | 0.00 | 0.00 | 55 | 1008.8 |
| 20260507185747 | 57 | 112 | 0.9 | 2.6 | 0.00 | 0.00 | 0.00 | 56 | 1008.8 |
| 20260507185243 | 56 | 12 | 2.6 | 2.6 | 0.00 | 0.00 | 0.00 | 56 | 1008.8 |
| 20260507184741 | 57 | 229 | 0.9 | 1.7 | 0.00 | 0.00 | 0.00 | 54 | 1009.1 |
| 20260507184239 | 55 | 229 | 2.6 | 4.3 | 0.00 | 0.00 | 0.00 | 56 | 1008.9 |
| 20260507183735 | 56 | 294 | 1.7 | 1.7 | 0.00 | 0.00 | 0.00 | 54 | 1008.9 |
| 20260507183232 | 57 | 18 | 2.6 | 4.3 | 0.00 | 0.00 | 0.00 | 57 | 1009.0 |
| 20260507182730 | 56 | 169 | 0.9 | 1.7 | 0.00 | 0.00 | 0.00 | 56 | 1009.1 |
| 20260507182224 | 56 | 190 | 0.9 | 0.9 | 0.00 | 0.00 | 0.00 | 54 | 1008.9 |
| 20260507181721 | 55 | 209 | 1.7 | 1.7 | 0.00 | 0.00 | 0.00 | 55 | 1009.0 |
| 20260507181218 | 57 | 271 | 0.9 | 1.7 | 0.00 | 0.00 | 0.00 | 56 | 1009.1 |
| 20260507180714 | 57 | 272 | 2.6 | 5.2 | 0.00 | 0.00 | 0.00 | 55 | 1008.8 |
| 20260507180212 | 55 | 306 | 0.9 | 0.9 | 0.00 | 0.00 | 0.00 | 58 | 1009.0 |
| 20260507175707 | 55 | 207 | 0.0 | 0.9 | 0.00 | 0.00 | 0.00 | 55 | 1009.1 |
| 20260507175204 | 56 | 332 | 1.7 | 4.3 | 0.00 | 0.00 | 0.00 | 55 | 1009.0 |
| 20260507174702 | 56 | 0 | 0.9 | 1.7 | 0.00 | 0.00 | 0.00 | 52 | 1009.0 |
| 20260507174159 | 56 | 22 | 3.5 | 5.2 | 0.00 | 0.00 | 0.00 | 53 | 1009.0 |
| 20260507173657 | 56 | 232 | 3.5 | 5.2 | 0.00 | 0.00 | 0.00 | 53 | 1009.1 |
| 20260507173153 | 56 | 278 | 4.3 | 6.1 | 0.00 | 0.00 | 0.00 | 53 | 1009.2 |
| 20260507172650 | 57 | 230 | 3.5 | 6.1 | 0.00 | 0.00 | 0.00 | 48 | 1009.0 |
| 20260507172147 | 56 | 16 | 3.5 | 4.3 | 0.00 | 0.00 | 0.00 | 48 | 1009.3 |
| 20260507171647 | 55 | 254 | 3.5 | 4.3 | 0.00 | 0.00 | 0.00 | 47 | 1009.3 |
| 20260507171144 | 56 | 243 | 2.6 | 4.3 | 0.00 | 0.00 | 0.00 | 48 | 1009.1 |
| 20260507170641 | 57 | 214 | 2.6 | 4.3 | 0.00 | 0.00 | 0.00 | 50 | 1009.1 |
| 20260507170139 | 58 | 290 | 2.6 | 2.6 | 0.00 | 0.00 | 0.00 | 51 | 1009.2 |
| 20260507165634 | 56 | 219 | 0.9 | 0.9 | 0.00 | 0.00 | 0.00 | 49 | 1008.8 |
| 20260507165131 | 57 | 20 | 4.3 | 6.1 | 0.00 | 0.00 | 0.00 | 49 | 1009.0 |
| 20260507164626 | 57 | 266 | 0.9 | 1.7 | 0.00 | 0.00 | 0.00 | 49 | 1009.0 |
| 20260507164124 | 56 | 222 | 1.7 | 1.7 | 0.00 | 0.00 | 0.00 | 49 | 1009.1 |
| 20260507163621 | 57 | 296 | 1.7 | 2.6 | 0.00 | 0.00 | 0.00 | 50 | 1009.2 |
| 20260507163119 | 56 | 255 | 0.9 | 0.9 | 0.00 | 0.00 | 0.00 | 50 | 1009.5 |
| 20260507162614 | 56 | 22 | 4.3 | 5.2 | 0.00 | 0.00 | 0.00 | 48 | 1009.6 |
| 20260507162111 | 56 | 346 | 1.7 | 1.7 | 0.00 | 0.00 | 0.00 | 52 | 1009.3 |
| 20260507161607 | 56 | 306 | 0.9 | 0.9 | 0.00 | 0.00 | 0.00 | 55 | 1009.5 |
| 20260507161104 | 56 | 88 | 3.5 | 4.3 | 0.00 | 0.00 | 0.00 | 54 | 1009.6 |
| 20260507160600 | 57 | 322 | 4.3 | 6.1 | 0.00 | 0.00 | 0.00 | 51 | 1009.9 |
| 20260507160056 | 56 | 359 | 1.7 | 1.7 | 0.00 | 0.00 | 0.00 | 53 | 1009.7 |
| 20260507155551 | 56 | 82 | 0.9 | 1.7 | 0.00 | 0.00 | 0.00 | 55 | 1009.7 |
| 20260507155049 | 56 | 49 | 3.5 | 5.2 | 0.00 | 0.00 | 0.00 | 57 | 1009.7 |
| 20260507154546 | 55 | 338 | 1.7 | 2.6 | 0.00 | 0.00 | 0.00 | 58 | 1009.6 |
| 20260507154043 | 57 | 321 | 0.9 | 1.7 | 0.00 | 0.00 | 0.00 | 56 | 1009.6 |
| 20260507153540 | 57 | 333 | 2.6 | 2.6 | 0.00 | 0.00 | 0.00 | 54 | 1009.7 |
| 20260507153036 | 55 | 224 | 0.9 | 0.9 | 0.00 | 0.00 | 0.00 | 55 | 1009.6 |
| 20260507152532 | 55 | 297 | 2.6 | 2.6 | 0.00 | 0.00 | 0.00 | 57 | 1009.7 |
| 20260507152029 | 55 | 230 | 0.9 | 0.9 | 0.00 | 0.00 | 0.00 | 59 | 1009.8 |
| 20260507151525 | 54 | 289 | 2.6 | 4.3 | 0.00 | 0.00 | 0.00 | 60 | 1009.9 |
| 20260507151022 | 53 | 215 | 0.0 | 0.0 | 0.00 | 0.00 | 0.00 | 60 | 1009.6 |
| 20260507150519 | 53 | 247 | 0.9 | 0.9 | 0.00 | 0.00 | 0.00 | 64 | 1009.7 |
| 20260507150016 | 53 | 207 | 0.9 | 1.7 | 0.00 | 0.00 | 0.00 | 62 | 1009.8 |
| 20260507145510 | 54 | 245 | 0.9 | 0.9 | 0.00 | 0.00 | 0.00 | 61 | 1009.8 |
| 20260507145008 | 56 | 281 | 0.9 | 0.9 | 0.00 | 0.00 | 0.00 | 58 | 1009.7 |
| 20260507144505 | 55 | 238 | 0.9 | 0.9 | 0.00 | 0.00 | 0.00 | 55 | 1009.6 |
| 20260507144002 | 57 | 197 | 0.9 | 1.7 | 0.00 | 0.00 | 0.00 | 53 | 1009.7 |
| 20260507143459 | 56 | 219 | 4.3 | 6.1 | 0.00 | 0.00 | 0.00 | 57 | 1009.8 |
| 20260507142956 | 56 | 211 | 0.9 | 0.9 | 0.00 | 0.00 | 0.00 | 57 | 1009.7 |
| 20260507142452 | 54 | 209 | 0.9 | 0.9 | 0.00 | 0.00 | 0.00 | 56 | 1009.9 |
| 20260507141949 | 55 | 290 | 2.6 | 4.3 | 0.00 | 0.00 | 0.00 | 57 | 1009.7 |
| 20260507141445 | 55 | 213 | 0.9 | 1.7 | 0.00 | 0.00 | 0.00 | 59 | 1009.9 |
| 20260507140942 | 55 | 217 | 0.9 | 1.7 | 0.00 | 0.00 | 0.00 | 65 | 1009.8 |
| 20260507140438 | 54 | 219 | 0.9 | 1.7 | 0.00 | 0.00 | 0.00 | 66 | 1009.9 |
| 20260507135936 | 54 | 205 | 0.9 | 0.9 | 0.00 | 0.00 | 0.00 | 66 | 1009.9 |
| 20260507135432 | 53 | 205 | 0.9 | 0.9 | 0.00 | 0.00 | 0.00 | 69 | 1010.1 |
| 20260507134930 | 51 | 211 | 0.0 | 0.0 | 0.00 | 0.00 | 0.00 | 71 | 1009.9 |
| 20260507134426 | 51 | 263 | 0.9 | 0.9 | 0.00 | 0.00 | 0.00 | 71 | 1010.1 |
| 20260507133922 | 51 | 234 | 1.7 | 1.7 | 0.00 | 0.00 | 0.00 | 74 | 1010.0 |
| 20260507133418 | 51 | 187 | 1.7 | 1.7 | 0.00 | 0.00 | 0.00 | 72 | 1010.3 |
| 20260507132917 | 50 | 210 | 0.0 | 0.0 | 0.00 | 0.00 | 0.00 | 74 | 1010.1 |
| 20260507132413 | 51 | 236 | 0.9 | 1.7 | 0.00 | 0.00 | 0.00 | 74 | 1010.2 |
| 20260507131910 | 50 | 222 | 0.9 | 0.9 | 0.00 | 0.00 | 0.00 | 77 | 1010.1 |
| 20260507131407 | 49 | 217 | 1.7 | 1.7 | 0.00 | 0.00 | 0.00 | 77 | 1010.0 |
| 20260507130904 | 49 | 251 | 0.0 | 0.0 | 0.00 | 0.00 | 0.00 | 77 | 1010.4 |
| 20260507130401 | 49 | 202 | 0.0 | 0.0 | 0.00 | 0.00 | 0.00 | 77 | 1010.3 |
| 20260507125900 | 49 | 214 | 0.0 | 0.0 | 0.00 | 0.00 | 0.00 | 77 | 1010.4 |
| 20260507125356 | 49 | 252 | 0.9 | 1.7 | 0.00 | 0.00 | 0.00 | 78 | 1010.1 |
| 20260507124854 | 48 | 202 | 0.0 | 0.9 | 0.00 | 0.00 | 0.00 | 78 | 1010.1 |
| 20260507124350 | 48 | 216 | 2.6 | 2.6 | 0.00 | 0.00 | 0.00 | 77 | 1010.2 |
| 20260507123849 | 48 | 213 | 0.9 | 0.9 | 0.00 | 0.00 | 0.00 | 77 | 1010.1 |
| 20260507123345 | 48 | 236 | 0.9 | 0.9 | 0.00 | 0.00 | 0.00 | 77 | 1009.8 |
| 20260507122842 | 47 | 223 | 0.0 | 0.0 | 0.00 | 0.00 | 0.00 | 78 | 1009.9 |
| 20260507122337 | 47 | 200 | 0.0 | 0.0 | 0.00 | 0.00 | 0.00 | 78 | 1010.1 |
| 20260507121834 | 46 | 218 | 0.0 | 0.0 | 0.00 | 0.00 | 0.00 | 79 | 1010.1 |
| 20260507121329 | 46 | 219 | 0.9 | 0.9 | 0.00 | 0.00 | 0.00 | 80 | 1009.9 |
| 20260507120826 | 46 | 214 | 1.7 | 1.7 | 0.00 | 0.00 | 0.00 | 80 | 1010.1 |
| 20260507120322 | 46 | 204 | 1.7 | 2.6 | 0.00 | 0.00 | 0.00 | 81 | 1010.2 |
| 20260507115819 | 45 | 198 | 0.9 | 0.9 | 0.00 | 0.00 | 0.00 | 82 | 1009.8 |
| 20260507115314 | 45 | 222 | 0.9 | 0.9 | 0.00 | 0.00 | 0.00 | 83 | 1009.6 |
| 20260507114810 | 45 | 218 | 0.0 | 0.0 | 0.00 | 0.00 | 0.00 | 83 | 1009.8 |
| 20260507114308 | 45 | 218 | 0.0 | 0.0 | 0.00 | 0.00 | 0.00 | 83 | 1010.2 |
| 20260507113805 | 44 | 222 | 0.9 | 0.9 | 0.00 | 0.00 | 0.00 | 84 | 1010.3 |
| 20260507113302 | 44 | 217 | 0.0 | 0.9 | 0.00 | 0.00 | 0.00 | 85 | 1010.3 |
| 20260507112800 | 44 | 225 | 0.9 | 0.9 | 0.00 | 0.00 | 0.00 | 86 | 1010.3 |
| 20260507112256 | 43 | 213 | 0.0 | 0.9 | 0.00 | 0.00 | 0.00 | 87 | 1010.2 |
| 20260507111755 | 43 | 204 | 0.0 | 0.9 | 0.00 | 0.00 | 0.00 | 89 | 1010.8 |
| 20260507111250 | 43 | 216 | 0.0 | 0.0 | 0.00 | 0.00 | 0.00 | 89 | 1010.2 |
| 20260507110747 | 42 | 205 | 0.9 | 0.9 | 0.00 | 0.00 | 0.00 | 90 | 1010.2 |
| 20260507110243 | 42 | 204 | 0.9 | 0.9 | 0.00 | 0.00 | 0.00 | 90 | 1010.1 |